Time;durP1;ratioP1;P1;durP2;ratioP2;P2;SDS_P1;SDS_P2;PMS_P1;PMS_P2;Temp;Humidity;BMP_temperature;BMP_pressure;BME280_temperature;BME280_humidity;BME280_pressure;Samples;Min_cycle;Max_cycle;Signal;HPM_P1;HPM_P2
2022/08/23 00:01:42;;;;;;;3.42;2.88;;;;;;;;;;4976345;28;20442;-79
2022/08/23 00:04:15;;;;;;;4.97;3.08;;;;;;;;;;4972475;28;20023;-79
2022/08/23 00:06:41;;;;;;;3.42;2.95;;;;;;;;;;4973087;28;20485;-79
2022/08/23 00:09:08;;;;;;;6.68;2.90;;;;;;;;;;4968465;28;20037;-79
2022/08/23 00:11:42;;;;;;;3.08;2.78;;;;;;;;;;4969043;28;20081;-78
2022/08/23 00:14:16;;;;;;;7.68;3.13;;;;;;;;;;4969211;28;20046;-78
2022/08/23 00:16:42;;;;;;;3.20;2.67;;;;;;;;;;4984727;28;20057;-79
2022/08/23 00:19:09;;;;;;;4.22;2.75;;;;;;;;;;4969685;28;20038;-79
2022/08/23 00:21:37;;;;;;;3.90;2.97;;;;;;;;;;4969831;28;20417;-79
2022/08/23 00:24:05;;;;;;;4.00;3.42;;;;;;;;;;4968085;28;20023;-79
2022/08/23 00:26:51;;;;;;;7.22;3.10;;;;;;;;;;4969988;28;20038;-79
2022/08/23 00:29:17;;;;;;;6.45;3.25;;;;;;;;;;4976317;28;20034;-79
2022/08/23 00:31:44;;;;;;;4.25;3.00;;;;;;;;;;4977045;28;20023;-78
2022/08/23 00:34:10;;;;;;;5.30;2.67;;;;;;;;;;4967067;28;20045;-78
2022/08/23 00:36:37;;;;;;;3.80;2.75;;;;;;;;;;4966459;28;20042;-79
2022/08/23 00:39:03;;;;;;;4.38;2.88;;;;;;;;;;4970041;28;20046;-78
2022/08/23 00:41:29;;;;;;;8.70;4.13;;;;;;;;;;4973442;28;20022;-79
2022/08/23 00:49:45;;;;;;;5.25;3.38;;;;;;;;;;4978173;28;20054;-78
2022/08/23 00:52:16;;;;;;;5.50;3.20;;;;;;;;;;4972418;28;20030;-79
2022/08/23 00:54:42;;;;;;;3.63;3.00;;;;;;;;;;4969923;28;20098;-79
2022/08/23 00:57:11;;;;;;;5.63;3.25;;;;;;;;;;4977756;28;20033;-78
2022/08/23 00:59:38;;;;;;;6.72;3.55;;;;;;;;;;4977512;28;20023;-79
2022/08/23 01:02:04;;;;;;;5.70;3.20;;;;;;;;;;4970535;28;20359;-78
2022/08/23 01:04:33;;;;;;;6.15;3.78;;;;;;;;;;4979784;28;20031;-78
2022/08/23 01:07:03;;;;;;;4.10;3.47;;;;;;;;;;4970535;28;20023;-78
2022/08/23 01:09:29;;;;;;;6.45;3.10;;;;;;;;;;4977661;28;20344;-79
2022/08/23 01:11:56;;;;;;;5.45;3.40;;;;;;;;;;4982206;28;20034;-78
2022/08/23 01:14:45;;;;;;;8.07;3.53;;;;;;;;;;4976598;28;20054;-78
2022/08/23 01:17:14;;;;;;;4.60;3.25;;;;;;;;;;4972845;28;20030;-79
2022/08/23 01:19:44;;;;;;;6.03;3.08;;;;;;;;;;4979914;28;20070;-79
2022/08/23 01:22:23;;;;;;;6.82;3.85;;;;;;;;;;4967256;28;20394;-79
2022/08/23 01:24:50;;;;;;;5.65;3.08;;;;;;;;;;4977991;28;20030;-79
2022/08/23 01:27:17;;;;;;;5.63;3.88;;;;;;;;;;4971313;28;20105;-79
2022/08/23 01:29:43;;;;;;;6.57;3.28;;;;;;;;;;4975337;28;20018;-78
2022/08/23 01:32:09;;;;;;;6.15;3.40;;;;;;;;;;4973223;28;20481;-78
2022/08/23 01:34:36;;;;;;;5.53;3.60;;;;;;;;;;4972512;28;20420;-79
2022/08/23 01:37:03;;;;;;;3.72;3.20;;;;;;;;;;4966821;28;20022;-79
2022/08/23 01:39:30;;;;;;;9.15;3.78;;;;;;;;;;4970386;28;20046;-79
2022/08/23 01:41:56;;;;;;;6.68;3.53;;;;;;;;;;4977509;28;20227;-78
2022/08/23 01:44:22;;;;;;;4.57;3.40;;;;;;;;;;4975264;28;20248;-78
2022/08/23 01:46:48;;;;;;;7.43;3.65;;;;;;;;;;4964534;28;20070;-79
2022/08/23 01:49:15;;;;;;;11.00;3.78;;;;;;;;;;4969812;28;20045;-79
2022/08/23 01:51:42;;;;;;;7.57;4.55;;;;;;;;;;4969528;28;20046;-78
2022/08/23 01:54:08;;;;;;;7.32;4.15;;;;;;;;;;4974037;28;20069;-79
2022/08/23 01:56:35;;;;;;;4.82;3.40;;;;;;;;;;4973120;28;20027;-78
2022/08/23 01:59:01;;;;;;;10.45;4.43;;;;;;;;;;4971370;28;20031;-79
2022/08/23 02:01:27;;;;;;;7.60;3.88;;;;;;;;;;4983642;28;20484;-79
2022/08/23 02:03:54;;;;;;;7.03;3.92;;;;;;;;;;4974139;28;20019;-79
2022/08/23 02:06:20;;;;;;;7.43;4.05;;;;;;;;;;4968430;28;20106;-78
2022/08/23 02:09:02;;;;;;;5.50;3.67;;;;;;;;;;4969057;28;20402;-78
2022/08/23 02:11:30;;;;;;;6.10;4.05;;;;;;;;;;4968805;28;20031;-79
2022/08/23 02:13:57;;;;;;;6.20;3.40;;;;;;;;;;4979595;28;20050;-78
2022/08/23 02:16:25;;;;;;;8.40;3.83;;;;;;;;;;4975805;28;20117;-79
2022/08/23 02:18:52;;;;;;;11.10;4.45;;;;;;;;;;4984364;28;20093;-79
2022/08/23 02:21:18;;;;;;;9.30;4.25;;;;;;;;;;4969608;28;20072;-79
2022/08/23 02:23:45;;;;;;;5.78;3.83;;;;;;;;;;4971631;28;20125;-79
2022/08/23 02:26:11;;;;;;;6.50;3.85;;;;;;;;;;4972221;28;20057;-79
2022/08/23 02:28:37;;;;;;;9.73;3.90;;;;;;;;;;4970360;28;20030;-79
2022/08/23 02:31:04;;;;;;;9.05;5.43;;;;;;;;;;4968520;28;20057;-79
2022/08/23 02:33:30;;;;;;;8.10;3.65;;;;;;;;;;4978047;28;20058;-79
2022/08/23 02:35:56;;;;;;;7.95;3.83;;;;;;;;;;4966039;28;20014;-78
2022/08/23 02:38:22;;;;;;;6.50;4.35;;;;;;;;;;4988229;28;20034;-79
2022/08/23 02:40:48;;;;;;;4.93;3.70;;;;;;;;;;4972224;28;20019;-79
2022/08/23 02:43:14;;;;;;;7.25;4.13;;;;;;;;;;4975019;28;20019;-79
2022/08/23 02:45:40;;;;;;;5.47;3.97;;;;;;;;;;4969443;28;20027;-78
2022/08/23 02:48:08;;;;;;;5.20;3.72;;;;;;;;;;4978136;28;20045;-78
2022/08/23 02:50:34;;;;;;;8.13;4.03;;;;;;;;;;4972255;28;20073;-79
2022/08/23 02:53:01;;;;;;;9.27;4.07;;;;;;;;;;4974490;28;20038;-80
2022/08/23 02:55:27;;;;;;;10.30;5.05;;;;;;;;;;4969399;28;20509;-78
2022/08/23 02:57:54;;;;;;;8.65;4.55;;;;;;;;;;4968628;28;20027;-79
2022/08/23 03:00:20;;;;;;;7.07;4.25;;;;;;;;;;4974567;28;20518;-79
2022/08/23 03:02:46;;;;;;;8.57;4.40;;;;;;;;;;4968362;28;20019;-79
2022/08/23 03:05:13;;;;;;;8.13;4.65;;;;;;;;;;4973400;28;20382;-79
2022/08/23 03:07:40;;;;;;;5.50;3.80;;;;;;;;;;4976404;28;20026;-79
2022/08/23 03:10:09;;;;;;;7.97;4.25;;;;;;;;;;4975527;28;20019;-79
2022/08/23 03:12:36;;;;;;;7.22;4.57;;;;;;;;;;4971390;28;20320;-79
2022/08/23 03:15:03;;;;;;;5.20;4.00;;;;;;;;;;4970339;28;20445;-78
2022/08/23 03:17:29;;;;;;;7.63;4.15;;;;;;;;;;4967089;28;20037;-78
2022/08/23 03:19:55;;;;;;;7.72;4.68;;;;;;;;;;4974845;28;20034;-79
2022/08/23 03:22:22;;;;;;;9.70;4.63;;;;;;;;;;4977132;28;20125;-80
2022/08/23 03:24:48;;;;;;;7.40;4.32;;;;;;;;;;4973042;28;20500;-78
2022/08/23 03:27:14;;;;;;;5.40;3.92;;;;;;;;;;4975094;28;20327;-79
2022/08/23 03:29:40;;;;;;;8.60;4.35;;;;;;;;;;4971263;28;20114;-79
2022/08/23 03:32:07;;;;;;;7.90;4.57;;;;;;;;;;4967500;28;20049;-80
2022/08/23 03:34:33;;;;;;;6.13;3.90;;;;;;;;;;4975416;28;20019;-79
2022/08/23 03:37:00;;;;;;;8.13;3.88;;;;;;;;;;4981658;28;20489;-79
2022/08/23 03:39:26;;;;;;;7.90;3.80;;;;;;;;;;4986315;28;20031;-79
2022/08/23 03:41:52;;;;;;;6.97;4.65;;;;;;;;;;4970210;28;20034;-79
2022/08/23 03:44:18;;;;;;;5.32;4.25;;;;;;;;;;4968831;28;20090;-78
2022/08/23 03:46:44;;;;;;;7.20;4.28;;;;;;;;;;4969678;28;20027;-79
2022/08/23 03:49:10;;;;;;;9.38;4.18;;;;;;;;;;4973459;28;20417;-79
2022/08/23 03:51:36;;;;;;;7.22;4.28;;;;;;;;;;4968398;28;20120;-78
2022/08/23 03:54:04;;;;;;;5.82;4.45;;;;;;;;;;4965167;28;20097;-79
2022/08/23 03:56:31;;;;;;;8.48;5.60;;;;;;;;;;4966675;28;20046;-77
2022/08/23 03:58:59;;;;;;;7.90;4.07;;;;;;;;;;4966793;28;20035;-78
2022/08/23 04:01:25;;;;;;;5.60;4.25;;;;;;;;;;4965776;28;20081;-79
2022/08/23 04:03:51;;;;;;;7.20;4.07;;;;;;;;;;4971067;28;20317;-79
2022/08/23 04:06:17;;;;;;;7.43;4.20;;;;;;;;;;4971586;28;20105;-78
2022/08/23 04:08:44;;;;;;;7.53;4.25;;;;;;;;;;4969436;28;20074;-78
2022/08/23 04:11:11;;;;;;;6.95;4.45;;;;;;;;;;4968429;28;20038;-79
2022/08/23 04:13:38;;;;;;;6.72;4.57;;;;;;;;;;4926449;28;1240777;-78
2022/08/23 04:16:04;;;;;;;8.15;4.30;;;;;;;;;;4972862;28;20041;-79
2022/08/23 04:18:31;;;;;;;7.82;4.80;;;;;;;;;;4969413;28;20085;-79
2022/08/23 04:20:57;;;;;;;8.60;4.90;;;;;;;;;;4973470;28;20061;-79
2022/08/23 04:23:24;;;;;;;8.20;4.40;;;;;;;;;;4973844;28;20134;-79
2022/08/23 04:25:50;;;;;;;9.27;5.50;;;;;;;;;;4964307;28;20097;-78
2022/08/23 04:28:17;;;;;;;7.70;5.40;;;;;;;;;;4968012;28;20035;-78
2022/08/23 04:30:44;;;;;;;5.28;4.25;;;;;;;;;;4967093;28;20472;-79
2022/08/23 04:33:10;;;;;;;7.28;4.20;;;;;;;;;;4981107;28;20023;-79
2022/08/23 04:35:36;;;;;;;4.40;4.00;;;;;;;;;;4966570;28;20386;-77
2022/08/23 04:38:02;;;;;;;5.93;4.10;;;;;;;;;;4974269;28;20105;-78
2022/08/23 04:43:13;;;;;;;5.90;5.10;;;;;;;;;;4976123;28;20087;-76
2022/08/23 04:45:40;;;;;;;6.68;4.22;;;;;;;;;;4968953;28;20078;-78
2022/08/23 04:48:08;;;;;;;9.98;4.60;;;;;;;;;;4964360;28;20029;-79
2022/08/23 04:50:35;;;;;;;7.40;3.65;;;;;;;;;;4966475;28;20030;-78
2022/08/23 04:53:01;;;;;;;7.60;4.47;;;;;;;;;;4966833;28;20486;-78
2022/08/23 04:55:27;;;;;;;4.72;4.18;;;;;;;;;;4968179;28;20061;-78
2022/08/23 04:57:54;;;;;;;6.10;3.85;;;;;;;;;;4966059;28;20097;-77
2022/08/23 05:00:20;;;;;;;5.93;4.07;;;;;;;;;;4970259;28;20031;-75
2022/08/23 05:02:46;;;;;;;5.45;3.83;;;;;;;;;;4971184;28;20076;-77
2022/08/23 05:05:13;;;;;;;6.88;3.75;;;;;;;;;;4969983;28;20092;-79
2022/08/23 05:07:39;;;;;;;7.10;3.70;;;;;;;;;;4972696;28;20041;-78
2022/08/23 05:10:06;;;;;;;5.07;3.83;;;;;;;;;;4971479;28;20031;-79
2022/08/23 05:12:33;;;;;;;6.95;4.03;;;;;;;;;;4967335;28;20035;-79
2022/08/23 05:14:59;;;;;;;5.88;4.03;;;;;;;;;;4975386;28;20085;-76
2022/08/23 05:17:25;;;;;;;5.45;3.97;;;;;;;;;;4969253;28;20077;-79
2022/08/23 05:19:51;;;;;;;8.25;3.60;;;;;;;;;;4972581;28;20042;-76
2022/08/23 05:22:17;;;;;;;4.78;3.78;;;;;;;;;;4970099;28;20024;-77
2022/08/23 05:24:43;;;;;;;5.15;3.80;;;;;;;;;;4968705;28;20031;-77
2022/08/23 05:27:09;;;;;;;4.10;3.47;;;;;;;;;;4969864;28;20381;-76
2022/08/23 05:29:35;;;;;;;5.15;3.53;;;;;;;;;;4977626;28;20038;-76
2022/08/23 05:32:02;;;;;;;3.95;3.35;;;;;;;;;;4973710;28;20029;-79
2022/08/23 05:34:28;;;;;;;4.88;3.75;;;;;;;;;;4972018;28;20042;-77
2022/08/23 05:36:54;;;;;;;6.72;4.10;;;;;;;;;;4969413;28;20097;-76
2022/08/23 05:39:25;;;;;;;4.85;3.35;;;;;;;;;;4965586;28;20075;-78
2022/08/23 05:41:51;;;;;;;5.03;3.70;;;;;;;;;;4979692;28;20468;-79
2022/08/23 05:44:17;;;;;;;5.45;3.60;;;;;;;;;;4974041;28;20038;-79
2022/08/23 05:46:44;;;;;;;8.25;3.67;;;;;;;;;;4975550;28;20512;-77
2022/08/23 05:49:10;;;;;;;4.07;3.42;;;;;;;;;;4970863;28;20034;-78
2022/08/23 05:51:36;;;;;;;5.50;3.40;;;;;;;;;;4969879;28;20057;-79
2022/08/23 05:54:04;;;;;;;4.97;4.47;;;;;;;;;;4982560;28;20027;-78
2022/08/23 05:56:32;;;;;;;3.80;3.38;;;;;;;;;;4984213;28;20027;-78
2022/08/23 05:59:00;;;;;;;4.60;3.40;;;;;;;;;;4971931;28;20035;-79
2022/08/23 06:01:28;;;;;;;7.55;3.30;;;;;;;;;;4973223;28;20121;-79
2022/08/23 06:03:55;;;;;;;7.28;3.55;;;;;;;;;;4970293;28;20019;-78
2022/08/23 06:06:22;;;;;;;4.75;3.42;;;;;;;;;;4974240;28;20030;-78
2022/08/23 06:08:48;;;;;;;3.45;3.15;;;;;;;;;;4973913;28;20121;-78
2022/08/23 06:11:16;;;;;;;4.88;3.40;;;;;;;;;;4966682;28;20034;-77
2022/08/23 06:13:56;;;;;;;5.75;3.17;;;;;;;;;;4969796;28;20493;-78
2022/08/23 06:16:24;;;;;;;6.20;3.92;;;;;;;;;;4976164;28;20161;-78
2022/08/23 06:18:50;;;;;;;5.07;3.10;;;;;;;;;;4975001;28;20029;-78
2022/08/23 06:21:17;;;;;;;3.67;2.78;;;;;;;;;;4970734;28;20033;-77
2022/08/23 06:23:43;;;;;;;3.58;3.05;;;;;;;;;;4980509;28;20576;-79
2022/08/23 06:26:13;;;;;;;6.35;3.78;;;;;;;;;;4979855;28;20023;-78
2022/08/23 06:28:40;;;;;;;4.13;3.33;;;;;;;;;;4980857;28;20453;-80
2022/08/23 06:31:06;;;;;;;5.85;2.85;;;;;;;;;;4971223;28;20026;-78
2022/08/23 06:33:32;;;;;;;3.65;2.70;;;;;;;;;;4973049;28;20031;-79
2022/08/23 06:36:03;;;;;;;4.45;3.08;;;;;;;;;;4975106;28;20476;-76
2022/08/23 06:38:30;;;;;;;3.92;3.10;;;;;;;;;;4971513;28;20035;-79
2022/08/23 06:41:00;;;;;;;4.43;3.63;;;;;;;;;;4975426;28;20050;-79
2022/08/23 06:43:26;;;;;;;4.97;3.70;;;;;;;;;;4969983;28;20030;-78
2022/08/23 06:45:52;;;;;;;4.35;3.15;;;;;;;;;;4971189;28;20056;-79
2022/08/23 06:48:18;;;;;;;4.90;3.33;;;;;;;;;;4974312;28;20074;-78
2022/08/23 06:50:44;;;;;;;4.95;3.67;;;;;;;;;;4981846;28;20401;-77
2022/08/23 06:53:11;;;;;;;5.47;3.10;;;;;;;;;;4973200;28;20474;-79
2022/08/23 06:55:37;;;;;;;3.83;3.28;;;;;;;;;;4977894;28;20022;-78
2022/08/23 06:58:03;;;;;;;6.32;4.28;;;;;;;;;;4981350;28;20034;-78
2022/08/23 07:00:30;;;;;;;6.10;3.72;;;;;;;;;;4967954;28;20027;-78
2022/08/23 07:02:56;;;;;;;6.55;3.72;;;;;;;;;;4969985;28;20548;-77
2022/08/23 07:05:22;;;;;;;4.95;3.25;;;;;;;;;;4970293;28;20035;-77
2022/08/23 07:07:48;;;;;;;6.00;3.50;;;;;;;;;;4977060;28;20073;-78
2022/08/23 07:10:14;;;;;;;5.95;3.65;;;;;;;;;;4970128;28;20098;-77
2022/08/23 07:12:41;;;;;;;5.85;3.80;;;;;;;;;;4976108;28;20125;-78
2022/08/23 07:15:08;;;;;;;8.57;3.45;;;;;;;;;;4971383;28;20031;-78
2022/08/23 07:17:34;;;;;;;4.38;2.50;;;;;;;;;;4973981;28;20041;-77
2022/08/23 07:20:00;;;;;;;3.17;2.63;;;;;;;;;;4969431;28;20388;-78
2022/08/23 07:22:26;;;;;;;3.63;2.90;;;;;;;;;;4971600;28;20046;-78
2022/08/23 07:24:52;;;;;;;4.85;2.50;;;;;;;;;;4980385;28;20103;-78
2022/08/23 07:27:19;;;;;;;3.88;2.90;;;;;;;;;;4973327;28;20490;-78
2022/08/23 07:29:45;;;;;;;3.03;2.60;;;;;;;;;;4985874;28;20516;-79
2022/08/23 07:32:12;;;;;;;4.50;2.85;;;;;;;;;;4974743;28;20038;-78
2022/08/23 07:34:38;;;;;;;6.13;2.50;;;;;;;;;;4971877;28;20430;-77
2022/08/23 07:37:05;;;;;;;4.88;2.35;;;;;;;;;;4975831;28;20027;-77
2022/08/23 07:39:31;;;;;;;3.45;2.38;;;;;;;;;;4967222;28;20061;-80
2022/08/23 07:41:58;;;;;;;4.30;2.30;;;;;;;;;;4970733;28;20497;-78
2022/08/23 07:44:25;;;;;;;3.65;2.45;;;;;;;;;;4969928;28;20066;-78
2022/08/23 07:46:51;;;;;;;2.47;2.28;;;;;;;;;;4968785;28;20105;-77
2022/08/23 07:49:17;;;;;;;2.33;2.10;;;;;;;;;;4970954;28;20026;-78
2022/08/23 07:51:45;;;;;;;4.18;2.40;;;;;;;;;;4969678;28;20498;-79
2022/08/23 07:54:11;;;;;;;4.25;2.38;;;;;;;;;;4982341;28;20416;-78
2022/08/23 07:56:38;;;;;;;4.88;2.40;;;;;;;;;;4968370;28;20114;-78
2022/08/23 07:59:07;;;;;;;2.17;1.98;;;;;;;;;;4980567;28;20031;-80
2022/08/23 08:01:34;;;;;;;2.13;1.90;;;;;;;;;;4980432;28;20082;-79
2022/08/23 08:04:01;;;;;;;3.33;1.95;;;;;;;;;;4969889;28;20077;-79
2022/08/23 08:06:29;;;;;;;3.05;1.90;;;;;;;;;;4967205;28;20026;-77
2022/08/23 08:08:56;;;;;;;3.88;2.00;;;;;;;;;;4965179;28;20638;-78
2022/08/23 08:11:24;;;;;;;2.08;1.88;;;;;;;;;;4968310;28;20462;-78
2022/08/23 08:13:51;;;;;;;2.15;1.90;;;;;;;;;;4983491;28;20058;-78
2022/08/23 08:16:37;;;;;;;1.77;1.67;;;;;;;;;;4980982;28;20436;-79
2022/08/23 08:19:06;;;;;;;1.83;1.60;;;;;;;;;;4967048;28;20030;-76
2022/08/23 08:21:33;;;;;;;1.85;1.70;;;;;;;;;;4969731;28;20704;-78
2022/08/23 08:23:59;;;;;;;1.63;1.52;;;;;;;;;;4970484;28;20019;-79
2022/08/23 08:26:26;;;;;;;4.95;1.80;;;;;;;;;;4973017;28;20031;-77
2022/08/23 08:28:54;;;;;;;2.20;1.70;;;;;;;;;;4970849;28;20037;-78
2022/08/23 08:31:21;;;;;;;2.08;1.55;;;;;;;;;;4963631;28;20054;-78
2022/08/23 08:33:47;;;;;;;1.45;1.35;;;;;;;;;;4966668;28;20494;-78
2022/08/23 08:36:34;;;;;;;2.25;1.40;;;;;;;;;;4965659;28;20463;-77
2022/08/23 08:39:01;;;;;;;3.53;1.75;;;;;;;;;;4967047;28;20481;-79
2022/08/23 08:41:48;;;;;;;2.00;1.60;;;;;;;;;;4968974;28;20074;-77
2022/08/23 08:44:20;;;;;;;1.52;1.40;;;;;;;;;;4964738;28;20031;-77
2022/08/23 08:46:48;;;;;;;1.60;1.50;;;;;;;;;;4965536;28;20508;-78
2022/08/23 08:49:17;;;;;;;2.08;1.63;;;;;;;;;;4972024;28;20066;-78
2022/08/23 08:51:50;;;;;;;1.55;1.45;;;;;;;;;;4971725;28;20114;-79
2022/08/23 08:54:18;;;;;;;2.28;1.70;;;;;;;;;;4967974;28;20031;-77
2022/08/23 08:56:47;;;;;;;1.70;1.60;;;;;;;;;;4965969;28;20026;-77
2022/08/23 08:59:15;;;;;;;1.70;1.60;;;;;;;;;;4965465;28;20367;-78
2022/08/23 09:01:42;;;;;;;2.08;1.60;;;;;;;;;;4967237;28;20035;-80
2022/08/23 09:04:08;;;;;;;2.95;1.77;;;;;;;;;;4983904;28;20113;-77
2022/08/23 09:06:52;;;;;;;2.60;1.70;;;;;;;;;;4978457;28;20038;-80
2022/08/23 09:09:37;;;;;;;2.17;1.70;;;;;;;;;;4987909;28;20094;-79
2022/08/23 09:12:09;;;;;;;2.58;1.70;;;;;;;;;;4967043;28;20429;-77
2022/08/23 09:14:47;;;;;;;2.25;1.60;;;;;;;;;;4965479;28;20082;-77
2022/08/23 09:17:13;;;;;;;2.75;1.90;;;;;;;;;;4981434;28;20042;-76
2022/08/23 09:19:40;;;;;;;1.50;1.40;;;;;;;;;;4969922;28;20109;-77
2022/08/23 09:22:13;;;;;;;2.25;1.70;;;;;;;;;;4966770;28;20023;-80
2022/08/23 09:24:40;;;;;;;1.95;1.42;;;;;;;;;;4967006;28;20489;-78
2022/08/23 09:27:07;;;;;;;1.58;1.48;;;;;;;;;;4971305;28;20035;-77
2022/08/23 09:29:35;;;;;;;1.38;1.27;;;;;;;;;;4966777;28;20234;-77
2022/08/23 09:32:06;;;;;;;1.30;1.20;;;;;;;;;;4968613;28;20535;-77
2022/08/23 09:34:35;;;;;;;3.42;1.52;;;;;;;;;;4967734;28;20116;-77
2022/08/23 09:37:10;;;;;;;1.90;1.80;;;;;;;;;;4982828;28;20354;-80
2022/08/23 09:39:36;;;;;;;;;;;;;;;;;;4971268;28;20030;-79
2022/08/23 09:42:02;;;;;;;1.23;1.13;;;;;;;;;;4969487;28;19945;-76
2022/08/23 09:44:36;;;;;;;1.40;1.30;;;;;;;;;;4974039;28;20031;-78
2022/08/23 09:47:14;;;;;;;1.48;1.38;;;;;;;;;;4977850;28;20027;-79
2022/08/23 09:49:41;;;;;;;4.03;1.70;;;;;;;;;;4966276;28;20027;-78
2022/08/23 09:52:24;;;;;;;3.10;1.60;;;;;;;;;;4968903;28;20034;-78
2022/08/23 09:54:58;;;;;;;1.60;1.50;;;;;;;;;;4966467;28;20042;-79
2022/08/23 09:57:26;;;;;;;1.70;1.60;;;;;;;;;;4966885;28;20030;-81
2022/08/23 09:59:55;;;;;;;2.83;2.40;;;;;;;;;;4967859;28;20477;-77
2022/08/23 10:02:21;;;;;;;1.67;1.42;;;;;;;;;;4963180;28;20453;-77
2022/08/23 10:04:53;;;;;;;2.45;1.48;;;;;;;;;;4967775;28;20029;-80
2022/08/23 10:07:31;;;;;;;1.98;1.20;;;;;;;;;;4967758;28;20035;-80
2022/08/23 10:10:18;;;;;;;1.63;1.52;;;;;;;;;;4983906;28;20085;-77
2022/08/23 10:12:45;;;;;;;3.22;1.25;;;;;;;;;;4966913;28;20061;-77
2022/08/23 10:15:12;;;;;;;3.40;1.23;;;;;;;;;;4969739;28;20085;-79
2022/08/23 10:17:44;;;;;;;3.80;1.40;;;;;;;;;;4965686;28;20034;-79
2022/08/23 10:20:20;;;;;;;1.35;1.17;;;;;;;;;;4964242;28;20608;-80
2022/08/23 10:22:56;;;;;;;1.30;1.20;;;;;;;;;;4965602;28;20057;-78
2022/08/23 10:25:29;;;;;;;1.83;1.35;;;;;;;;;;4968629;28;20030;-78
2022/08/23 10:31:05;;;;;;;2.50;1.20;;;;;;;;;;4965548;28;20092;-79
2022/08/23 10:33:31;;;;;;;1.30;1.20;;;;;;;;;;4981059;28;20482;-78
2022/08/23 10:35:57;;;;;;;1.55;1.38;;;;;;;;;;4968990;28;20093;-81
2022/08/23 10:38:33;;;;;;;1.98;1.08;;;;;;;;;;4970120;28;20647;-78
2022/08/23 10:41:10;;;;;;;2.28;1.55;;;;;;;;;;4968206;28;20023;-79
2022/08/23 10:43:36;;;;;;;1.75;1.40;;;;;;;;;;4969772;28;20085;-82
2022/08/23 10:46:06;;;;;;;1.50;1.40;;;;;;;;;;4965365;28;20058;-80
2022/08/23 10:48:35;;;;;;;1.50;1.40;;;;;;;;;;4962751;28;20090;-80
2022/08/23 10:51:05;;;;;;;1.10;1.10;;;;;;;;;;4964190;28;20030;-78
2022/08/23 10:53:45;;;;;;;1.38;1.30;;;;;;;;;;4962721;28;20409;-78
2022/08/23 10:56:16;;;;;;;2.10;1.58;;;;;;;;;;4965430;28;20026;-77
2022/08/23 10:58:51;;;;;;;2.50;1.60;;;;;;;;;;4966092;28;20494;-80
2022/08/23 11:01:20;;;;;;;2.25;1.50;;;;;;;;;;4967840;28;20065;-78
2022/08/23 11:03:56;;;;;;;1.83;1.55;;;;;;;;;;4964919;28;20572;-80
2022/08/23 11:06:27;;;;;;;2.63;1.30;;;;;;;;;;4963195;28;20148;-78
2022/08/23 11:09:07;;;;;;;1.48;1.38;;;;;;;;;;4962711;28;20181;-79
2022/08/23 11:11:45;;;;;;;2.35;1.35;;;;;;;;;;4963660;28;20301;-79
2022/08/23 11:14:25;;;;;;;1.98;1.70;;;;;;;;;;4965256;28;20047;-81
2022/08/23 11:16:55;;;;;;;1.75;1.60;;;;;;;;;;4965518;28;20110;-79
2022/08/23 11:19:41;;;;;;;1.45;1.35;;;;;;;;;;4965711;28;20576;-78
2022/08/23 11:22:18;;;;;;;2.40;1.60;;;;;;;;;;4962318;28;20549;-78
2022/08/23 11:24:53;;;;;;;3.40;1.50;;;;;;;;;;4966905;28;20561;-78
2022/08/23 11:27:19;;;;;;;;;;;;;;;;;;4965152;28;20429;-79
2022/08/23 11:29:45;;;;;;;1.98;1.60;;;;;;;;;;4964678;28;19914;-77
2022/08/23 11:32:21;;;;;;;1.98;1.60;;;;;;;;;;4963204;28;20507;-80
2022/08/23 11:35:04;;;;;;;2.28;1.60;;;;;;;;;;4965620;28;20030;-79
2022/08/23 11:37:50;;;;;;;2.80;1.58;;;;;;;;;;4966076;28;20500;-78
2022/08/23 11:40:36;;;;;;;1.33;1.30;;;;;;;;;;4964548;28;20035;-77
2022/08/23 11:43:25;;;;;;;2.92;1.60;;;;;;;;;;4963809;28;20019;-80
2022/08/23 11:45:52;;;;;;;2.38;1.60;;;;;;;;;;4958447;28;20042;-79
2022/08/23 11:48:22;;;;;;;1.40;1.30;;;;;;;;;;4962710;28;20758;-81
2022/08/23 11:50:49;;;;;;;2.33;1.90;;;;;;;;;;4964596;28;20516;-78
2022/08/23 11:53:23;;;;;;;1.85;1.60;;;;;;;;;;4963983;28;20045;-78
2022/08/23 11:55:49;;;;;;;;;;;;;;;;;;4963322;28;20037;-82
2022/08/23 11:58:22;;;;;;;2.15;1.60;;;;;;;;;;4964362;28;19913;-77
2022/08/23 12:01:04;;;;;;;1.30;1.20;;;;;;;;;;4963535;28;20041;-79
2022/08/23 12:03:52;;;;;;;1.83;1.50;;;;;;;;;;4963305;28;20466;-79
2022/08/23 12:06:18;;;;;;;1.40;1.30;;;;;;;;;;4964117;28;20023;-79
2022/08/23 12:08:47;;;;;;;1.45;1.35;;;;;;;;;;4963168;28;20520;-79
2022/08/23 12:11:14;;;;;;;1.70;1.33;;;;;;;;;;4962585;28;20018;-78
2022/08/23 12:13:45;;;;;;;1.60;1.50;;;;;;;;;;4962351;28;20042;-81
2022/08/23 12:16:15;;;;;;;1.65;1.55;;;;;;;;;;4979070;28;20458;-79
2022/08/23 12:18:52;;;;;;;2.05;1.70;;;;;;;;;;4963596;28;20019;-80
2022/08/23 12:21:21;;;;;;;2.38;1.52;;;;;;;;;;4964697;28;20030;-79
2022/08/23 12:23:48;;;;;;;2.08;1.70;;;;;;;;;;4965310;28;20026;-80
2022/08/23 12:26:33;;;;;;;1.60;1.50;;;;;;;;;;4962142;28;20030;-82
2022/08/23 12:29:18;;;;;;;1.92;1.50;;;;;;;;;;4965871;28;20034;-81
2022/08/23 12:31:44;;;;;;;;;;;;;;;;;;4965719;28;20072;-85
2022/08/23 12:34:41;;;;;;;1.60;1.50;;;;;;;;;;4962549;28;20452;-79
2022/08/23 12:37:16;;;;;;;1.70;1.50;;;;;;;;;;4915021;28;20043;-80
2022/08/23 12:39:56;;;;;;;2.83;1.70;;;;;;;;;;4968297;28;20031;-79
2022/08/23 12:42:28;;;;;;;1.67;1.58;;;;;;;;;;4964027;28;20497;-79
2022/08/23 12:44:59;;;;;;;1.73;1.60;;;;;;;;;;4969427;28;20426;-80
2022/08/23 12:47:30;;;;;;;1.40;1.30;;;;;;;;;;4964263;28;20423;-79
2022/08/23 12:50:02;;;;;;;1.50;1.40;;;;;;;;;;4984899;28;20108;-80
2022/08/23 12:52:30;;;;;;;1.35;1.25;;;;;;;;;;4987237;28;20043;-79
2022/08/23 12:54:56;;;;;;;1.98;1.38;;;;;;;;;;4970023;28;20046;-80
2022/08/23 12:57:30;;;;;;;2.28;1.50;;;;;;;;;;4969781;28;20035;-79
2022/08/23 13:00:02;;;;;;;1.55;1.45;;;;;;;;;;4969643;28;20607;-79
2022/08/23 13:02:31;;;;;;;1.30;1.27;;;;;;;;;;4967557;28;20019;-79
2022/08/23 13:05:02;;;;;;;1.77;1.50;;;;;;;;;;4983994;28;20027;-80
2022/08/23 13:07:28;;;;;;;2.40;1.95;;;;;;;;;;4967714;28;20480;-77
2022/08/23 13:09:55;;;;;;;2.20;1.50;;;;;;;;;;4983018;28;20174;-80
2022/08/23 13:12:22;;;;;;;1.48;1.38;;;;;;;;;;4966720;28;20046;-79
2022/08/23 13:14:49;;;;;;;1.75;1.50;;;;;;;;;;4967904;28;20158;-81
2022/08/23 13:17:30;;;;;;;1.90;1.38;;;;;;;;;;4965876;28;20356;-80
2022/08/23 13:20:06;;;;;;;1.65;1.48;;;;;;;;;;4970349;28;20425;-80
2022/08/23 13:22:33;;;;;;;3.25;1.70;;;;;;;;;;4963210;28;20494;-79
2022/08/23 13:25:05;;;;;;;2.75;1.52;;;;;;;;;;4966777;28;20150;-80
2022/08/23 13:27:50;;;;;;;1.40;1.30;;;;;;;;;;4967328;28;20340;-79
2022/08/23 13:30:18;;;;;;;1.88;1.55;;;;;;;;;;4966339;28;20393;-80
2022/08/23 13:32:46;;;;;;;2.15;1.50;;;;;;;;;;4967930;28;20102;-79
2022/08/23 13:35:31;;;;;;;2.65;1.58;;;;;;;;;;4965921;28;20027;-79
2022/08/23 13:38:06;;;;;;;1.63;1.48;;;;;;;;;;4968885;28;20025;-79
2022/08/23 13:40:38;;;;;;;2.42;1.45;;;;;;;;;;4964298;28;20503;-79
2022/08/23 13:43:07;;;;;;;3.22;1.63;;;;;;;;;;4966630;28;20022;-80
2022/08/23 13:45:35;;;;;;;2.22;1.55;;;;;;;;;;4969073;28;20091;-79
2022/08/23 13:48:06;;;;;;;1.55;1.30;;;;;;;;;;4966420;28;20113;-80
2022/08/23 13:50:34;;;;;;;1.52;1.42;;;;;;;;;;4966651;28;20026;-78
2022/08/23 13:53:00;;;;;;;2.25;1.63;;;;;;;;;;4964861;28;20220;-79
2022/08/23 13:55:27;;;;;;;2.17;1.60;;;;;;;;;;4974629;28;20496;-78
2022/08/23 13:57:54;;;;;;;3.25;2.00;;;;;;;;;;4972606;28;20406;-78
2022/08/23 14:00:20;;;;;;;2.70;1.73;;;;;;;;;;4968891;28;20035;-78
2022/08/23 14:02:57;;;;;;;1.73;1.55;;;;;;;;;;4986783;28;20031;-77
2022/08/23 14:05:26;;;;;;;1.95;1.75;;;;;;;;;;4990396;28;20024;-78
2022/08/23 14:07:59;;;;;;;1.77;1.60;;;;;;;;;;4976947;28;20027;-77
2022/08/23 14:10:27;;;;;;;2.47;1.65;;;;;;;;;;4997716;28;20615;-78
2022/08/23 14:12:55;;;;;;;2.53;1.70;;;;;;;;;;4988009;28;20173;-78
2022/08/23 14:15:23;;;;;;;4.45;1.48;;;;;;;;;;4970465;28;20081;-77
2022/08/23 14:17:51;;;;;;;2.08;1.70;;;;;;;;;;4986273;28;20034;-78
2022/08/23 14:20:19;;;;;;;1.52;1.38;;;;;;;;;;4975491;28;20018;-77
2022/08/23 14:22:46;;;;;;;4.07;1.75;;;;;;;;;;4966770;28;20038;-79
2022/08/23 14:25:14;;;;;;;2.33;1.80;;;;;;;;;;4988627;28;20105;-78
2022/08/23 14:27:46;;;;;;;2.38;1.60;;;;;;;;;;4972277;28;20034;-77
2022/08/23 14:30:21;;;;;;;3.67;1.70;;;;;;;;;;4972848;28;20039;-77
2022/08/23 14:32:47;;;;;;;1.88;1.58;;;;;;;;;;4971308;28;20031;-77
2022/08/23 14:35:15;;;;;;;1.80;1.70;;;;;;;;;;4972600;28;20026;-77
2022/08/23 14:37:41;;;;;;;3.03;1.70;;;;;;;;;;4965800;28;20489;-79
2022/08/23 14:40:08;;;;;;;1.70;1.48;;;;;;;;;;4969834;28;20030;-80
2022/08/23 14:42:37;;;;;;;2.30;1.60;;;;;;;;;;4966196;28;20089;-81
2022/08/23 14:45:04;;;;;;;2.67;1.63;;;;;;;;;;4967107;28;20033;-81
2022/08/23 14:47:30;;;;;;;3.28;1.80;;;;;;;;;;4968981;28;20301;-80
2022/08/23 14:49:56;;;;;;;1.95;1.75;;;;;;;;;;4971214;28;20034;-82
2022/08/23 14:52:23;;;;;;;1.80;1.60;;;;;;;;;;4967325;28;20484;-80
2022/08/23 14:54:49;;;;;;;5.43;1.70;;;;;;;;;;4964997;28;20065;-81
2022/08/23 14:57:15;;;;;;;2.42;1.77;;;;;;;;;;4963227;28;20035;-80
2022/08/23 14:59:43;;;;;;;2.75;1.60;;;;;;;;;;4967718;28;20031;-81
2022/08/23 15:02:11;;;;;;;1.67;1.50;;;;;;;;;;4969224;28;21227;-81
2022/08/23 15:04:38;;;;;;;2.25;2.05;;;;;;;;;;4968254;28;20158;-81
2022/08/23 15:07:05;;;;;;;2.53;1.45;;;;;;;;;;4969163;28;20034;-80